createdAt,value
2023-12-08T00:00:31.567Z,109.68
2023-12-08T00:02:58.541Z,102.95
2023-12-08T00:05:25.559Z,98.38
2023-12-08T00:07:52.449Z,102.20
2023-12-08T00:10:19.499Z,105.13
2023-12-08T00:12:46.502Z,91.50
2023-12-08T00:15:13.836Z,89.03
2023-12-08T00:17:40.793Z,79.55
2023-12-08T00:20:08.957Z,79.25
2023-12-08T00:22:36.118Z,78.82
2023-12-08T00:25:04.555Z,84.55
2023-12-08T00:27:31.516Z,90.07
2023-12-08T00:29:58.499Z,78.88
2023-12-08T00:32:25.733Z,89.03
2023-12-08T00:34:52.676Z,77.78
2023-12-08T00:37:19.585Z,72.28
2023-12-08T00:39:46.468Z,71.25
2023-12-08T00:42:13.683Z,67.13
2023-12-08T00:44:40.627Z,68.70
2023-12-08T00:47:08.436Z,64.35
2023-12-08T00:49:35.431Z,63.95
2023-12-08T00:52:02.891Z,69.63
2023-12-08T00:54:29.928Z,66.53
2023-12-08T00:56:57.110Z,69.10
2023-12-08T00:59:24.133Z,75.90
2023-12-08T01:01:51.010Z,73.68
2023-12-08T01:04:17.946Z,73.90
2023-12-08T01:06:45.503Z,71.57
2023-12-08T01:09:14.030Z,67.97
2023-12-08T01:11:41.086Z,40.83
2023-12-08T01:14:08.344Z,43.22
2023-12-08T01:16:41.157Z,33.38
2023-12-08T01:19:09.863Z,27.38
2023-12-08T01:21:40.318Z,31.45
2023-12-08T01:24:07.826Z,39.28
2023-12-08T01:26:35.203Z,57.45
2023-12-08T01:29:02.518Z,48.20
2023-12-08T01:31:29.444Z,36.08
2023-12-08T01:33:56.516Z,51.47
2023-12-08T01:36:41.394Z,48.47
2023-12-08T01:39:10.559Z,56.92
2023-12-08T01:41:37.676Z,58.92
2023-12-08T01:44:06.501Z,58.20
2023-12-08T01:46:33.564Z,52.15
2023-12-08T01:49:00.944Z,28.10
2023-12-08T01:51:30.032Z,36.42
2023-12-08T01:53:57.262Z,30.75
2023-12-08T01:56:24.859Z,35.67
2023-12-08T01:58:52.536Z,44.83
2023-12-08T02:01:19.866Z,45.13
2023-12-08T02:03:50.065Z,37.15
2023-12-08T02:06:18.968Z,35.35
2023-12-08T02:08:50.010Z,35.47
2023-12-08T02:11:18.591Z,35.03
2023-12-08T02:13:46.437Z,37.28
2023-12-08T02:16:29.348Z,53.72
2023-12-08T02:18:57.852Z,51.40
2023-12-08T02:21:27.141Z,25.42
2023-12-08T02:23:54.138Z,28.73
2023-12-08T02:26:21.557Z,29.42
2023-12-08T02:28:48.831Z,25.83
2023-12-08T02:31:18.272Z,28.35
2023-12-08T02:33:48.156Z,24.98
2023-12-08T02:36:17.559Z,28.88
2023-12-08T02:38:47.494Z,33.53
2023-12-08T02:41:14.716Z,41.60
2023-12-08T02:43:42.215Z,45.67
2023-12-08T02:46:09.365Z,26.42
2023-12-08T02:48:36.460Z,29.20
2023-12-08T02:51:04.827Z,33.53
2023-12-08T02:53:32.704Z,44.55
2023-12-08T02:55:59.878Z,40.38
2023-12-08T02:58:26.821Z,46.35
2023-12-08T03:00:53.733Z,42.60
2023-12-08T03:03:21.287Z,44.70
2023-12-08T03:05:48.257Z,36.45
2023-12-08T03:08:15.189Z,40.60
2023-12-08T03:10:42.222Z,45.40
2023-12-08T03:13:09.625Z,43.72
2023-12-08T03:15:36.866Z,71.07
2023-12-08T03:18:04.348Z,82.40
2023-12-08T03:20:31.312Z,83.60
2023-12-08T03:22:58.269Z,113.55
2023-12-08T03:25:25.202Z,97.57
2023-12-08T03:27:52.172Z,88.63
2023-12-08T03:30:19.252Z,73.53
2023-12-08T03:32:46.518Z,67.45
2023-12-08T03:35:13.721Z,63.60
2023-12-08T03:37:41.075Z,60.40
2023-12-08T03:40:08.720Z,47.55
2023-12-08T03:42:38.036Z,49.97
2023-12-08T03:45:06.645Z,47.20
2023-12-08T03:47:34.036Z,55.40
2023-12-08T03:50:01.293Z,51.30
2023-12-08T03:52:28.368Z,58.03
2023-12-08T03:54:55.410Z,61.13
2023-12-08T03:57:22.673Z,64.10
2023-12-08T03:59:49.820Z,59.45
2023-12-08T04:02:16.771Z,72.53
2023-12-08T04:04:43.884Z,67.65
2023-12-08T04:07:11.324Z,58.20
2023-12-08T04:09:38.360Z,52.58
2023-12-08T04:12:05.751Z,51.97
2023-12-08T04:14:33.602Z,48.47
2023-12-08T04:17:00.622Z,42.67
2023-12-08T04:19:28.090Z,45.95
2023-12-08T04:21:55.361Z,51.17
2023-12-08T04:24:22.428Z,44.33
2023-12-08T04:26:49.411Z,42.90
2023-12-08T04:29:16.674Z,44.45
2023-12-08T04:31:43.885Z,42.50
2023-12-08T04:34:11.141Z,41.03
2023-12-08T04:36:38.201Z,44.60
2023-12-08T04:39:05.366Z,46.90
2023-12-08T04:41:32.958Z,51.67
2023-12-08T04:43:59.924Z,52.75
2023-12-08T04:46:26.847Z,49.97
2023-12-08T04:48:54.063Z,55.25
2023-12-08T04:51:21.028Z,59.63
2023-12-08T04:53:48.219Z,50.90
2023-12-08T04:56:15.335Z,50.85
2023-12-08T04:58:42.342Z,54.42
2023-12-08T05:01:14.066Z,153.05
2023-12-08T05:03:41.983Z,127.68
2023-12-08T05:06:09.795Z,83.28
2023-12-08T05:08:37.556Z,79.78
2023-12-08T05:11:04.770Z,56.63
2023-12-08T05:13:31.953Z,53.63
2023-12-08T05:15:58.962Z,56.55
2023-12-08T05:18:27.268Z,87.63
2023-12-08T05:20:54.400Z,66.75
2023-12-08T05:23:21.781Z,68.47
2023-12-08T05:25:48.676Z,78.72
2023-12-08T05:28:15.635Z,77.28
2023-12-08T05:30:42.630Z,77.75
2023-12-08T05:33:10.226Z,52.65
2023-12-08T05:35:37.351Z,62.28
2023-12-08T05:38:04.314Z,55.50
2023-12-08T05:40:31.255Z,51.88
2023-12-08T05:42:58.337Z,53.92
2023-12-08T05:45:25.330Z,48.92
2023-12-08T05:47:52.373Z,50.13
2023-12-08T05:50:19.320Z,46.40
2023-12-08T05:52:46.283Z,44.92
2023-12-08T05:55:13.343Z,76.07
2023-12-08T05:57:40.310Z,98.40
2023-12-08T06:00:11.306Z,81.03
2023-12-08T06:02:39.262Z,83.07
2023-12-08T06:05:06.671Z,74.68
2023-12-08T06:07:33.774Z,58.08
2023-12-08T06:10:00.769Z,75.28
2023-12-08T06:12:27.763Z,60.78
2023-12-08T06:14:55.940Z,67.35
2023-12-08T06:17:22.889Z,63.53
2023-12-08T06:19:50.014Z,60.58
2023-12-08T06:22:16.931Z,61.17
2023-12-08T06:24:44.051Z,60.38
2023-12-08T06:27:11.528Z,63.88
2023-12-08T06:29:38.675Z,61.65
2023-12-08T06:32:06.586Z,75.30
2023-12-08T06:34:33.893Z,63.83
2023-12-08T06:37:01.055Z,69.88
2023-12-08T06:39:28.239Z,73.60
2023-12-08T06:41:55.209Z,66.70
2023-12-08T06:44:22.319Z,68.03
2023-12-08T06:46:49.359Z,73.57
2023-12-08T06:49:16.441Z,78.75
2023-12-08T06:51:43.584Z,85.60
2023-12-08T06:54:12.160Z,93.75
2023-12-08T06:56:42.800Z,72.72
2023-12-08T06:59:10.307Z,59.83
2023-12-08T07:01:37.446Z,80.22
2023-12-08T07:04:07.880Z,72.20
2023-12-08T07:06:35.000Z,69.53
2023-12-08T07:09:02.178Z,62.70
2023-12-08T07:11:29.125Z,55.40
2023-12-08T07:13:56.052Z,57.92
2023-12-08T07:16:23.054Z,63.67
2023-12-08T07:18:50.111Z,64.43
2023-12-08T07:21:17.243Z,76.88
2023-12-08T07:23:44.169Z,74.80
2023-12-08T07:26:11.625Z,74.75
2023-12-08T07:28:38.744Z,78.88
2023-12-08T07:31:05.750Z,73.10
2023-12-08T07:33:32.774Z,97.05
2023-12-08T07:35:59.898Z,89.55
2023-12-08T07:38:26.931Z,90.05
2023-12-08T07:40:54.294Z,93.00
2023-12-08T07:43:22.419Z,81.55
2023-12-08T07:45:49.453Z,67.13
2023-12-08T07:48:16.512Z,59.55
2023-12-08T07:50:43.600Z,68.65
2023-12-08T07:53:10.577Z,77.18
2023-12-08T07:55:37.525Z,90.43
2023-12-08T07:58:04.846Z,95.97
2023-12-08T08:00:32.993Z,90.07
2023-12-08T08:03:00.324Z,80.30
2023-12-08T08:05:27.298Z,86.05
2023-12-08T08:07:54.212Z,78.40
2023-12-08T08:10:22.671Z,72.07
2023-12-08T08:12:49.995Z,76.85
2023-12-08T08:15:17.013Z,75.45
2023-12-08T08:17:44.008Z,83.18
2023-12-08T08:20:11.335Z,80.38
2023-12-08T08:22:38.262Z,73.85
2023-12-08T08:25:05.862Z,71.53
2023-12-08T08:27:33.484Z,75.20
2023-12-08T08:30:00.775Z,89.53
2023-12-08T08:32:28.530Z,93.32
2023-12-08T08:34:57.788Z,94.30
2023-12-08T08:37:26.220Z,86.57
2023-12-08T08:39:53.523Z,88.57
2023-12-08T08:42:21.073Z,86.32
2023-12-08T08:44:48.157Z,85.32
2023-12-08T08:47:15.093Z,96.15
2023-12-08T08:49:42.334Z,82.63
2023-12-08T08:52:09.401Z,98.90
2023-12-08T08:54:36.473Z,121.45
2023-12-08T08:57:06.289Z,122.18
2023-12-08T08:59:33.326Z,105.93
2023-12-08T09:02:00.592Z,101.90
2023-12-08T09:04:27.662Z,108.78
2023-12-08T09:06:57.539Z,98.85
2023-12-08T09:09:24.775Z,83.13
2023-12-08T09:11:51.984Z,73.55
2023-12-08T09:14:18.983Z,80.57
2023-12-08T09:16:48.197Z,64.28
2023-12-08T09:19:15.410Z,65.80
2023-12-08T09:21:49.322Z,72.72
2023-12-08T09:24:21.714Z,57.97
2023-12-08T09:26:48.845Z,55.65
2023-12-08T09:29:15.891Z,60.72
2023-12-08T09:31:43.511Z,66.95
2023-12-08T09:34:10.602Z,65.57
2023-12-08T09:36:37.720Z,50.20
2023-12-08T09:39:05.544Z,54.97
2023-12-08T09:41:33.224Z,42.58
2023-12-08T09:44:19.564Z,40.15
2023-12-08T09:46:47.942Z,43.83
2023-12-08T09:49:44.267Z,44.13
2023-12-08T09:52:14.788Z,36.58
2023-12-08T09:54:45.544Z,39.00
2023-12-08T09:57:15.021Z,36.72
2023-12-08T09:59:43.729Z,34.42
2023-12-08T10:02:11.047Z,35.90
2023-12-08T10:04:38.497Z,33.17
2023-12-08T10:07:09.422Z,43.67
2023-12-08T10:09:37.212Z,39.05
2023-12-08T10:12:05.850Z,38.47
2023-12-08T10:14:33.472Z,25.17
2023-12-08T10:17:00.492Z,27.98
2023-12-08T10:19:27.692Z,34.88
2023-12-08T10:22:02.242Z,32.80
2023-12-08T10:24:32.930Z,29.08
2023-12-08T10:27:00.774Z,34.83
2023-12-08T10:29:34.761Z,32.35
2023-12-08T10:32:02.569Z,19.50
2023-12-08T10:34:29.666Z,14.30
2023-12-08T10:36:57.068Z,13.70
2023-12-08T10:39:25.462Z,14.40
2023-12-08T10:41:53.073Z,12.90
2023-12-08T10:44:24.161Z,15.73
2023-12-08T10:46:52.967Z,18.75
2023-12-08T10:49:21.109Z,21.60
2023-12-08T10:51:49.278Z,17.58
2023-12-08T10:54:20.579Z,19.67
2023-12-08T10:56:49.375Z,19.10
2023-12-08T10:59:25.506Z,20.85
2023-12-08T11:01:56.397Z,27.27
2023-12-08T11:04:26.217Z,31.75
2023-12-08T11:07:06.452Z,32.63
2023-12-08T11:09:39.957Z,29.77
2023-12-08T11:12:09.001Z,34.80
2023-12-08T11:14:42.339Z,32.78
2023-12-08T11:17:21.652Z,32.67
2023-12-08T11:19:49.825Z,39.22
2023-12-08T11:22:17.479Z,32.47
2023-12-08T11:24:45.113Z,36.95
2023-12-08T11:27:20.819Z,40.97
2023-12-08T11:30:11.655Z,43.88
2023-12-08T11:33:07.029Z,37.22
2023-12-08T11:35:34.027Z,37.05
2023-12-08T11:38:06.549Z,32.00
2023-12-08T11:40:33.477Z,37.83
2023-12-08T11:43:01.572Z,31.85
2023-12-08T11:45:29.843Z,32.45
2023-12-08T11:47:57.534Z,31.17
2023-12-08T11:50:26.282Z,29.38
2023-12-08T11:52:53.324Z,27.98
2023-12-08T11:55:28.218Z,26.48
2023-12-08T11:58:03.422Z,29.73
2023-12-08T12:00:32.121Z,36.17
2023-12-08T12:03:00.404Z,32.47
2023-12-08T12:05:29.503Z,32.00
2023-12-08T12:07:58.497Z,24.23
2023-12-08T12:10:29.876Z,25.55
2023-12-08T12:13:04.318Z,35.88
2023-12-08T12:15:34.661Z,25.95
2023-12-08T12:18:03.630Z,28.13
2023-12-08T12:20:35.519Z,27.23
2023-12-08T12:23:03.605Z,28.65
2023-12-08T12:25:30.627Z,48.10
2023-12-08T12:27:58.920Z,31.17
2023-12-08T12:30:26.175Z,26.95
2023-12-08T12:32:54.305Z,38.00
2023-12-08T12:35:22.279Z,41.13
2023-12-08T12:37:49.384Z,34.45
2023-12-08T12:40:16.572Z,37.78
2023-12-08T12:42:45.705Z,31.15
2023-12-08T12:45:29.588Z,38.88
2023-12-08T12:48:00.771Z,36.05
2023-12-08T12:50:27.782Z,28.98
2023-12-08T12:53:06.810Z,33.75
2023-12-08T12:55:33.791Z,41.80
2023-12-08T12:58:02.889Z,33.00
2023-12-08T13:00:39.091Z,35.83
2023-12-08T13:03:11.605Z,28.65
2023-12-08T13:05:49.215Z,33.55
2023-12-08T13:08:18.254Z,26.88
2023-12-08T13:10:46.250Z,27.70
2023-12-08T13:13:15.810Z,30.60
2023-12-08T13:15:43.738Z,35.92
2023-12-08T13:18:11.425Z,36.35
2023-12-08T13:20:39.334Z,45.67
2023-12-08T13:23:07.378Z,37.67
2023-12-08T13:25:34.453Z,36.40
2023-12-08T13:28:01.442Z,31.83
2023-12-08T13:30:28.385Z,26.42
2023-12-08T13:32:56.550Z,26.52
2023-12-08T13:35:24.028Z,25.98
2023-12-08T13:37:51.176Z,32.83
2023-12-08T13:40:18.444Z,27.17
2023-12-08T13:42:45.446Z,25.02
2023-12-08T13:45:12.432Z,23.17
2023-12-08T13:47:40.190Z,19.70
2023-12-08T13:50:07.294Z,23.27
2023-12-08T13:52:34.326Z,24.25
2023-12-08T13:55:01.351Z,25.30
2023-12-08T13:57:28.501Z,36.63
2023-12-08T13:59:55.649Z,48.78
2023-12-08T14:02:23.177Z,32.90
2023-12-08T14:04:50.328Z,36.53
2023-12-08T14:07:17.486Z,35.08
2023-12-08T14:09:44.404Z,59.80
2023-12-08T14:12:11.552Z,51.47
2023-12-08T14:14:38.615Z,33.83
2023-12-08T14:17:05.965Z,30.17
2023-12-08T14:19:33.128Z,29.98
2023-12-08T14:22:00.486Z,25.90
2023-12-08T14:24:27.908Z,38.08
2023-12-08T14:26:55.358Z,37.28
2023-12-08T14:29:23.498Z,36.17
2023-12-08T14:31:50.611Z,28.75
2023-12-08T14:34:18.278Z,25.20
2023-12-08T14:36:47.209Z,26.73
2023-12-08T14:39:14.502Z,39.25
2023-12-08T14:41:41.895Z,38.55
2023-12-08T14:44:10.250Z,33.97
2023-12-08T14:46:37.167Z,42.97
2023-12-08T14:49:10.019Z,47.38
2023-12-08T14:51:38.758Z,43.33
2023-12-08T14:54:05.774Z,42.53
2023-12-08T14:56:32.753Z,38.58
2023-12-08T14:58:59.627Z,37.75
2023-12-08T15:01:26.929Z,46.25
2023-12-08T15:03:54.057Z,43.05
2023-12-08T15:06:21.182Z,51.67
2023-12-08T15:08:48.204Z,53.97
2023-12-08T15:11:15.270Z,51.97
2023-12-08T15:13:42.319Z,59.00
2023-12-08T15:16:10.320Z,67.90
2023-12-08T15:18:37.891Z,75.25
2023-12-08T15:21:08.469Z,100.28
2023-12-08T15:23:38.063Z,102.22
2023-12-08T15:26:05.110Z,102.22
2023-12-08T15:28:32.014Z,123.20
2023-12-08T15:30:58.920Z,139.90
2023-12-08T15:33:26.154Z,130.88
2023-12-08T15:35:53.328Z,125.15
2023-12-08T15:38:20.289Z,114.72
2023-12-08T15:40:47.190Z,109.50
2023-12-08T15:43:14.136Z,99.55
2023-12-08T15:45:41.201Z,87.72
2023-12-08T15:48:08.540Z,81.55
2023-12-08T15:50:35.607Z,81.47
2023-12-08T15:53:02.777Z,95.25
2023-12-08T15:55:29.767Z,82.90
2023-12-08T15:57:56.677Z,101.68
2023-12-08T16:00:23.935Z,113.30
2023-12-08T16:02:51.061Z,112.88
2023-12-08T16:05:18.161Z,101.47
2023-12-08T16:07:45.105Z,87.13
2023-12-08T16:10:12.091Z,86.45
2023-12-08T16:12:39.234Z,91.20
2023-12-08T16:15:10.008Z,84.22
2023-12-08T16:17:37.148Z,85.63
2023-12-08T16:20:04.476Z,84.20
2023-12-08T16:22:31.470Z,93.65
2023-12-08T16:24:58.415Z,95.43
2023-12-08T16:27:25.692Z,98.50
2023-12-08T16:29:52.850Z,222.77
2023-12-08T16:32:19.807Z,276.13
2023-12-08T16:34:46.873Z,169.68
2023-12-08T16:37:13.870Z,186.10
2023-12-08T16:39:40.799Z,116.18
2023-12-08T16:42:08.019Z,111.75
2023-12-08T16:44:35.008Z,107.82
2023-12-08T16:47:02.236Z,110.70
2023-12-08T16:49:29.363Z,101.43
2023-12-08T16:51:56.466Z,117.45
2023-12-08T16:54:23.809Z,123.70
2023-12-08T16:56:51.419Z,123.82
2023-12-08T16:59:18.440Z,121.78
2023-12-08T17:01:46.555Z,111.13
2023-12-08T17:04:14.661Z,110.45
2023-12-08T17:06:41.666Z,119.40
2023-12-08T17:09:08.713Z,111.80
2023-12-08T17:11:35.700Z,102.00
2023-12-08T17:14:02.660Z,130.45
2023-12-08T17:16:29.629Z,177.63
2023-12-08T17:18:56.939Z,150.52
2023-12-08T17:21:24.097Z,173.70
2023-12-08T17:23:51.336Z,205.48
2023-12-08T17:26:28.896Z,190.35
2023-12-08T17:29:02.947Z,202.35
2023-12-08T17:31:29.847Z,210.55
2023-12-08T17:34:04.775Z,186.45
2023-12-08T17:36:39.124Z,171.90
2023-12-08T17:39:06.142Z,174.98
2023-12-08T17:41:33.105Z,178.93
2023-12-08T17:44:00.059Z,170.50
2023-12-08T17:46:27.024Z,176.10
2023-12-08T17:48:54.158Z,158.43
2023-12-08T17:51:21.341Z,161.85
2023-12-08T17:53:48.340Z,178.55
2023-12-08T17:56:15.781Z,178.80
2023-12-08T17:58:43.846Z,155.32
2023-12-08T18:01:11.027Z,146.48
2023-12-08T18:03:38.135Z,152.85
2023-12-08T18:06:05.524Z,142.95
2023-12-08T18:08:32.457Z,129.98
2023-12-08T18:10:59.360Z,156.95
2023-12-08T18:13:26.256Z,143.73
2023-12-08T18:15:53.176Z,145.25
2023-12-08T18:18:20.154Z,137.50
2023-12-08T18:20:47.120Z,122.70
2023-12-08T18:23:15.363Z,134.98
2023-12-08T18:25:42.921Z,150.23
2023-12-08T18:28:28.090Z,141.20
2023-12-08T18:30:56.697Z,138.25
2023-12-08T18:33:23.759Z,140.88
2023-12-08T18:35:50.761Z,151.13
2023-12-08T18:38:17.718Z,159.25
2023-12-08T18:40:44.617Z,158.60
2023-12-08T18:43:11.581Z,164.70
2023-12-08T18:45:38.495Z,153.30
2023-12-08T18:48:05.928Z,175.85
2023-12-08T18:50:32.883Z,174.02
2023-12-08T18:52:59.816Z,173.80
2023-12-08T18:55:26.813Z,183.50
2023-12-08T18:57:53.846Z,164.55
2023-12-08T19:00:21.040Z,170.90
2023-12-08T19:02:48.050Z,155.40
2023-12-08T19:05:15.612Z,170.02
2023-12-08T19:07:42.636Z,169.75
2023-12-08T19:10:09.929Z,178.02
2023-12-08T19:12:36.916Z,210.60
2023-12-08T19:15:04.619Z,189.85
2023-12-08T19:17:31.742Z,156.90
2023-12-08T19:19:58.691Z,144.23
2023-12-08T19:22:25.883Z,152.95
2023-12-08T19:24:53.338Z,196.88
2023-12-08T19:27:20.244Z,219.85
2023-12-08T19:29:47.502Z,177.10
2023-12-08T19:32:14.736Z,155.85
2023-12-08T19:34:41.642Z,166.43
2023-12-08T19:37:08.540Z,170.65
2023-12-08T19:39:35.779Z,174.32
2023-12-08T19:42:02.814Z,172.85
2023-12-08T19:44:30.607Z,160.13
2023-12-08T19:46:57.668Z,183.90
2023-12-08T19:49:24.852Z,161.40
2023-12-08T19:51:52.122Z,168.32
2023-12-08T19:54:19.961Z,185.20
2023-12-08T19:56:47.245Z,211.68
2023-12-08T19:59:14.483Z,259.95
2023-12-08T20:01:41.454Z,292.40
2023-12-08T20:04:08.503Z,269.50
2023-12-08T20:06:35.605Z,249.75
2023-12-08T20:09:04.080Z,262.85
2023-12-08T20:11:31.385Z,257.85
2023-12-08T20:14:00.269Z,276.38
2023-12-08T20:16:27.162Z,283.33
2023-12-08T20:18:54.292Z,262.83
2023-12-08T20:21:21.263Z,259.30
2023-12-08T20:23:48.369Z,259.77
2023-12-08T20:26:15.719Z,244.05
2023-12-08T20:28:42.963Z,206.38
2023-12-08T20:31:18.494Z,241.35
2023-12-08T20:33:46.159Z,202.95
2023-12-08T20:36:13.586Z,186.40
2023-12-08T20:38:41.226Z,219.50
2023-12-08T20:41:08.613Z,227.93
2023-12-08T20:43:36.035Z,231.35
2023-12-08T20:46:04.121Z,219.52
2023-12-08T20:48:32.331Z,209.18
2023-12-08T20:50:59.439Z,218.27
2023-12-08T20:53:28.461Z,229.55
2023-12-08T20:55:55.383Z,231.55
2023-12-08T20:58:22.390Z,233.45
2023-12-08T21:00:49.562Z,212.23
2023-12-08T21:03:16.660Z,199.40
2023-12-08T21:05:43.640Z,211.68
2023-12-08T21:08:10.588Z,209.98
2023-12-08T21:10:37.544Z,213.40
2023-12-08T21:13:05.827Z,215.80
2023-12-08T21:15:32.844Z,227.77
2023-12-08T21:17:59.861Z,241.35
2023-12-08T21:20:26.803Z,204.45
2023-12-08T21:22:53.706Z,212.32
2023-12-08T21:25:20.648Z,225.85
2023-12-08T21:27:47.648Z,235.90
2023-12-08T21:30:14.709Z,200.65
2023-12-08T21:32:41.720Z,212.68
2023-12-08T21:35:09.120Z,196.07
2023-12-08T21:37:37.647Z,175.32
2023-12-08T21:40:04.931Z,169.40
2023-12-08T21:42:32.053Z,179.80
2023-12-08T21:45:03.231Z,173.18
2023-12-08T21:47:30.781Z,173.50
2023-12-08T21:49:58.114Z,166.00
2023-12-08T21:52:25.019Z,153.77
2023-12-08T21:54:51.957Z,137.98
2023-12-08T21:57:18.941Z,131.68
2023-12-08T21:59:45.920Z,129.10
2023-12-08T22:02:12.915Z,130.35
2023-12-08T22:04:40.257Z,128.43
2023-12-08T22:07:07.228Z,108.75
2023-12-08T22:09:34.323Z,107.68
2023-12-08T22:12:03.479Z,105.63
2023-12-08T22:14:31.650Z,115.95
2023-12-08T22:16:58.538Z,115.00
2023-12-08T22:19:25.567Z,107.57
2023-12-08T22:21:52.666Z,100.13
2023-12-08T22:24:19.642Z,102.90
2023-12-08T22:26:46.672Z,102.82
2023-12-08T22:29:13.730Z,97.80
2023-12-08T22:31:40.628Z,106.80
2023-12-08T22:34:07.793Z,110.75
2023-12-08T22:36:36.516Z,99.05
2023-12-08T22:39:04.347Z,92.75
2023-12-08T22:41:31.508Z,93.25
2023-12-08T22:43:58.391Z,92.43
2023-12-08T22:46:25.349Z,87.32
2023-12-08T22:48:52.377Z,97.93
2023-12-08T22:51:25.633Z,89.45
2023-12-08T22:53:59.825Z,84.90
2023-12-08T22:56:26.797Z,83.93
2023-12-08T22:58:53.730Z,90.75
2023-12-08T23:01:20.653Z,88.75
2023-12-08T23:03:47.692Z,88.05
2023-12-08T23:06:14.622Z,96.15
2023-12-08T23:08:41.762Z,92.93
2023-12-08T23:11:09.774Z,92.53
2023-12-08T23:13:36.898Z,95.85
2023-12-08T23:16:04.259Z,100.13
2023-12-08T23:18:31.308Z,92.85
2023-12-08T23:20:58.403Z,108.28
2023-12-08T23:23:26.540Z,88.90
2023-12-08T23:25:54.827Z,91.68
2023-12-08T23:28:21.816Z,92.18
2023-12-08T23:30:57.270Z,89.50
2023-12-08T23:33:27.704Z,89.72
2023-12-08T23:35:54.751Z,79.05
2023-12-08T23:38:21.679Z,76.80
2023-12-08T23:40:48.796Z,76.53
2023-12-08T23:43:15.865Z,83.28
2023-12-08T23:45:42.816Z,82.95
2023-12-08T23:48:09.861Z,80.63
2023-12-08T23:50:36.842Z,80.68
2023-12-08T23:53:04.379Z,71.00
2023-12-08T23:55:31.247Z,65.97
2023-12-08T23:57:58.234Z,73.40
